Time;durP1;ratioP1;P1;durP2;ratioP2;P2;SDS_P1;SDS_P2;PMS_P1;PMS_P2;Temp;Humidity;BMP_temperature;BMP_pressure;BME280_temperature;BME280_humidity;BME280_pressure;Samples;Min_cycle;Max_cycle;Signal;HPM_P1;HPM_P2
2023/07/06 00:01:29;;;;;;;7.58;4.67;;;;;;;14.60;99.95;99410.84;1671618;84;21608;-66
2023/07/06 00:03:56;;;;;;;6.20;4.60;;;;;;;14.64;100.00;99409.67;1672732;84;21007;-67
2023/07/06 00:06:23;;;;;;;6.00;5.15;;;;;;;14.69;100.00;99404.95;1672461;84;21004;-67
2023/07/06 00:08:52;;;;;;;8.78;5.22;;;;;;;14.72;99.95;99407.36;1673169;84;21074;-66
2023/07/06 00:11:20;;;;;;;5.62;4.83;;;;;;;14.71;99.81;99410.95;1673594;84;21023;-65
2023/07/06 00:13:47;;;;;;;7.47;4.90;;;;;;;14.65;99.69;99406.13;1672960;84;21077;-66
2023/07/06 00:16:14;;;;;;;6.33;4.87;;;;;;;14.66;99.73;99399.91;1672879;84;21041;-67
2023/07/06 00:18:41;;;;;;;;;;;;;;;14.63;100.00;99402.27;1674440;84;21040;-67
2023/07/06 00:21:08;;;;;;;6.80;5.17;;;;;;;14.65;100.00;99406.95;1638790;85;20493;-67
2023/07/06 00:23:35;;;;;;;6.93;5.10;;;;;;;14.69;100.00;99410.20;1640745;86;21091;-66
2023/07/06 00:26:02;;;;;;;5.58;4.70;;;;;;;14.69;100.00;99402.32;1640446;86;21042;-67
2023/07/06 00:28:28;;;;;;;;;;;;;;;14.72;100.00;99397.69;1646801;87;21124;-65
2023/07/06 00:31:06;;;;;;;6.62;5.12;;;;;;;14.70;100.00;99390.85;1641149;86;20111;-67
2023/07/06 00:33:26;;;;;;;6.83;5.08;;;;;;;14.66;100.00;99394.66;1636067;86;21154;-66
2023/07/06 00:35:52;;;;;;;5.87;4.92;;;;;;;14.63;100.00;99396.19;1677276;84;21082;-65
2023/07/06 00:38:21;;;;;;;7.42;4.72;;;;;;;14.58;99.99;99398.28;1677259;84;21022;-64
2023/07/06 00:40:51;;;;;;;9.15;5.20;;;;;;;14.50;100.00;99391.72;1675955;85;21026;-67
2023/07/06 00:43:21;;;;;;;6.97;4.62;;;;;;;14.45;100.00;99395.16;1668368;84;20933;-66
2023/07/06 00:45:51;;;;;;;6.90;5.15;;;;;;;14.43;100.00;99394.42;1668450;84;21037;-66
2023/07/06 00:48:26;;;;;;;7.50;5.05;;;;;;;14.44;100.00;99398.72;1669114;85;21121;-67
2023/07/06 00:50:56;;;;;;;7.60;5.00;;;;;;;14.42;100.00;99392.72;1664829;84;20979;-67
2023/07/06 00:53:27;;;;;;;6.62;4.80;;;;;;;14.34;100.00;99389.80;1666186;85;21000;-63
2023/07/06 00:55:57;;;;;;;6.95;4.45;;;;;;;14.23;99.99;99387.90;1667419;85;21026;-64
2023/07/06 00:58:27;;;;;;;8.50;4.72;;;;;;;14.12;99.89;99388.27;1626462;86;21436;-64
2023/07/06 01:00:57;;;;;;;7.25;4.78;;;;;;;14.03;100.00;99386.62;1636097;86;21083;-67
2023/07/06 01:03:24;;;;;;;8.88;4.47;;;;;;;13.96;100.00;99389.27;1599494;88;21142;-66
2023/07/06 01:05:54;;;;;;;8.45;4.80;;;;;;;13.89;100.00;99397.16;1632628;88;21069;-66
2023/07/06 01:08:22;;;;;;;8.13;4.78;;;;;;;13.81;100.00;99394.23;1666157;84;21015;-63
2023/07/06 01:10:53;;;;;;;6.53;4.50;;;;;;;13.75;100.00;99397.23;1650923;85;21042;-66
2023/07/06 01:13:21;;;;;;;5.03;4.50;;;;;;;13.68;100.00;99399.91;1673466;85;21007;-65
2023/07/06 01:15:54;;;;;;;4.78;4.03;;;;;;;13.62;100.00;99403.30;1668797;86;20964;-63
2023/07/06 01:18:32;;;;;;;10.25;3.85;;;;;;;13.56;100.00;99408.95;1663725;85;21062;-65
2023/07/06 01:21:09;;;;;;;;;;;;;;;13.48;100.00;99403.34;1669610;84;21069;-65
2023/07/06 01:23:44;;;;;;;7.78;4.87;;;;;;;13.43;100.00;99406.73;1666776;85;20171;-66
2023/07/06 01:26:19;;;;;;;7.53;4.33;;;;;;;13.28;100.00;99377.57;1668593;85;21553;-64
2023/07/06 01:29:07;;;;;;;4.78;4.37;;;;;;;13.28;100.00;99377.57;1667222;85;21039;-66
2023/07/06 01:31:37;;;;;;;4.65;4.22;;;;;;;13.38;100.00;99389.13;1593872;88;21656;-65
2023/07/06 01:34:20;;;;;;;4.70;2.70;;;;;;;13.39;100.00;99394.30;1585314;88;21601;-66
2023/07/06 01:37:16;;;;;;;6.25;3.35;;;;;;;13.25;100.00;99364.59;1575552;90;21046;-65
2023/07/06 01:39:43;;;;;;;3.75;3.35;;;;;;;13.34;100.00;99381.10;1580238;90;21022;-65
2023/07/06 01:42:29;;;;;;;3.65;3.35;;;;;;;13.40;100.00;99389.88;1576769;90;21102;-65
2023/07/06 01:44:59;;;;;;;7.80;3.90;;;;;;;13.38;100.00;99381.27;1542882;91;21015;-64
2023/07/06 01:47:29;;;;;;;7.40;5.35;;;;;;;13.35;100.00;99382.77;1575414;88;21063;-66
2023/07/06 01:49:57;;;;;;;20.23;13.72;;;;;;;13.27;100.00;99387.66;1575247;90;21114;-64
2023/07/06 01:52:30;;;;;;;19.75;14.15;;;;;;;13.27;100.00;99387.66;1578270;90;20973;-64
2023/07/06 01:55:16;;;;;;;12.82;9.30;;;;;;;13.15;100.00;99391.41;1574036;90;21119;-65
2023/07/06 01:58:17;;;;;;;6.17;5.40;;;;;;;13.15;100.00;99391.41;1572384;88;21603;-65
2023/07/06 02:00:44;;;;;;;7.00;4.03;;;;;;;13.08;100.00;99390.13;1574896;90;21461;-64
2023/07/06 02:03:12;;;;;;;6.33;3.77;;;;;;;12.87;99.94;99388.83;1571236;90;21031;-63
2023/07/06 02:05:41;;;;;;;5.35;4.33;;;;;;;12.87;99.94;99388.83;1577071;89;21058;-64
2023/07/06 02:08:10;;;;;;;7.03;5.60;;;;;;;12.75;99.98;99401.75;1561764;87;21507;-63
2023/07/06 02:10:37;;;;;;;6.53;4.47;;;;;;;12.65;100.00;99395.38;1608920;87;20999;-65
2023/07/06 02:13:04;;;;;;;8.78;6.67;;;;;;;12.61;100.00;99400.92;1644268;86;21103;-63
2023/07/06 02:15:31;;;;;;;6.23;4.53;;;;;;;12.60;100.00;99397.43;1645366;86;21036;-65
2023/07/06 02:17:57;;;;;;;6.15;4.92;;;;;;;12.60;100.00;99404.45;1641598;86;21082;-65
2023/07/06 02:20:24;;;;;;;7.08;5.55;;;;;;;12.51;100.00;99400.61;1646621;85;20999;-65
2023/07/06 02:22:50;;;;;;;5.72;5.03;;;;;;;12.54;100.00;99406.98;1640587;86;21075;-65
2023/07/06 02:25:17;;;;;;;10.72;6.08;;;;;;;12.53;100.00;99411.85;1644779;86;21059;-65
2023/07/06 02:27:43;;;;;;;8.00;4.95;;;;;;;12.50;100.00;99413.34;1648598;85;21086;-65
2023/07/06 02:30:10;;;;;;;6.92;5.55;;;;;;;12.47;100.00;99412.23;1645462;86;20975;-65
2023/07/06 02:32:36;;;;;;;7.03;4.35;;;;;;;12.43;100.00;99420.70;1643068;86;21118;-64
2023/07/06 02:35:04;;;;;;;4.20;3.47;;;;;;;12.42;100.00;99416.89;1641592;85;21546;-64
2023/07/06 02:37:31;;;;;;;4.92;4.22;;;;;;;12.37;100.00;99419.77;1640088;86;21091;-63
2023/07/06 02:39:58;;;;;;;5.78;3.20;;;;;;;12.30;100.00;99419.30;1643167;85;21024;-64
2023/07/06 02:42:26;;;;;;;5.10;3.60;;;;;;;12.29;100.00;99425.48;1614881;87;21531;-64
2023/07/06 02:44:53;;;;;;;8.23;4.22;;;;;;;12.25;100.00;99431.81;1643515;86;21443;-64
2023/07/06 02:47:21;;;;;;;5.45;3.25;;;;;;;12.23;100.00;99431.05;1613608;87;22773;-65
2023/07/06 02:49:48;;;;;;;6.08;3.22;;;;;;;12.20;100.00;99439.09;1643431;86;20994;-65
2023/07/06 02:52:15;;;;;;;6.53;3.40;;;;;;;12.21;100.00;99443.41;1642698;86;20978;-64
2023/07/06 02:54:41;;;;;;;6.40;3.12;;;;;;;12.19;100.00;99437.89;1646283;86;21593;-65
2023/07/06 02:57:08;;;;;;;4.75;3.00;;;;;;;12.15;100.00;99442.44;1639678;86;21043;-64
2023/07/06 02:59:34;;;;;;;4.72;2.90;;;;;;;12.11;99.79;99442.25;1643548;86;21109;-63
2023/07/06 03:02:00;;;;;;;5.30;3.22;;;;;;;12.07;100.00;99445.95;1611349;86;21046;-64
2023/07/06 03:04:28;;;;;;;4.10;2.65;;;;;;;12.06;100.00;99458.67;1651099;85;21066;-64
2023/07/06 03:07:00;;;;;;;6.85;3.10;;;;;;;12.00;99.79;99450.72;1613425;86;21038;-64
2023/07/06 03:09:24;;;;;;;3.83;2.90;;;;;;;11.98;100.00;99456.97;1651337;85;20987;-65
2023/07/06 03:11:52;;;;;;;4.85;3.25;;;;;;;11.97;100.00;99461.36;1649862;84;20963;-64
2023/07/06 03:14:21;;;;;;;;;;;;;;;11.98;100.00;99465.65;1646808;85;20996;-64
2023/07/06 03:16:47;;;;;;;3.67;3.17;;;;;;;11.99;100.00;99462.59;1639384;86;20186;-65
2023/07/06 03:19:14;;;;;;;5.07;3.60;;;;;;;12.00;100.00;99468.19;1617489;87;21083;-64
2023/07/06 03:21:40;;;;;;;6.63;3.17;;;;;;;12.01;100.00;99462.02;1609201;87;21063;-63
2023/07/06 03:24:08;;;;;;;4.70;3.12;;;;;;;12.01;100.00;99465.94;1616154;87;21071;-65
2023/07/06 03:26:40;;;;;;;4.80;2.98;;;;;;;12.04;100.00;99471.00;1645684;86;21527;-64
2023/07/06 03:29:06;;;;;;;5.53;3.33;;;;;;;12.08;100.00;99468.59;1642524;85;21071;-64
2023/07/06 03:31:33;;;;;;;8.20;3.42;;;;;;;12.15;100.00;99469.91;1641144;86;21014;-65
2023/07/06 03:34:02;;;;;;;5.78;3.20;;;;;;;12.25;100.00;99477.63;1624338;86;21050;-64
2023/07/06 03:36:28;;;;;;;6.37;2.98;;;;;;;12.34;100.00;99479.33;1649225;86;21014;-65
2023/07/06 03:38:57;;;;;;;3.42;2.83;;;;;;;12.46;100.00;99479.91;1648755;85;21589;-65
2023/07/06 03:41:23;;;;;;;4.30;2.62;;;;;;;12.68;100.00;99483.41;1637273;86;21029;-63
2023/07/06 03:43:56;;;;;;;6.60;3.02;;;;;;;12.68;100.00;99483.41;1655893;85;20988;-65
2023/07/06 03:46:20;;;;;;;4.80;3.12;;;;;;;12.80;100.00;99488.38;1650607;85;21042;-65
2023/07/06 03:48:47;;;;;;;6.22;2.77;;;;;;;12.80;100.00;99465.67;1657406;85;21078;-65
2023/07/06 03:51:14;;;;;;;4.67;2.70;;;;;;;13.02;100.00;99487.45;1663914;85;21021;-65
2023/07/06 03:53:40;;;;;;;3.08;2.62;;;;;;;13.10;100.00;99495.70;1684090;83;21017;-65
2023/07/06 03:56:10;;;;;;;4.47;2.50;;;;;;;13.18;100.00;99497.37;1685777;83;21034;-65
2023/07/06 03:58:38;;;;;;;5.72;2.67;;;;;;;13.18;100.00;99482.96;1684336;83;21084;-63
2023/07/06 04:01:05;;;;;;;7.58;3.00;;;;;;;13.37;100.00;99493.66;1684164;83;21525;-65
2023/07/06 04:03:33;;;;;;;3.90;2.40;;;;;;;13.47;100.00;99496.09;1684231;83;20967;-65
2023/07/06 04:06:03;;;;;;;8.38;2.80;;;;;;;13.60;100.00;99502.23;1683960;83;20982;-64
2023/07/06 04:08:31;;;;;;;4.12;2.60;;;;;;;13.66;100.00;99498.37;1683944;83;21005;-64
2023/07/06 04:10:58;;;;;;;3.75;2.40;;;;;;;13.75;100.00;99500.88;1683220;83;21552;-65
2023/07/06 04:13:24;;;;;;;3.42;2.67;;;;;;;13.81;100.00;99501.83;1683747;83;21029;-66
2023/07/06 04:15:57;;;;;;;5.10;2.35;;;;;;;13.91;100.00;99506.83;1682476;83;21053;-66
2023/07/06 04:18:21;;;;;;;6.35;2.87;;;;;;;13.96;100.00;99492.95;1678790;83;21030;-65
2023/07/06 04:20:48;;;;;;;4.92;2.65;;;;;;;14.12;100.00;99496.73;1684388;83;21006;-66
2023/07/06 04:23:15;;;;;;;7.28;2.40;;;;;;;14.24;100.00;99504.27;1684758;83;21070;-66
2023/07/06 04:25:42;;;;;;;5.55;2.92;;;;;;;14.32;100.00;99504.61;1683226;83;21107;-65
2023/07/06 04:28:15;;;;;;;9.18;2.60;;;;;;;14.38;99.96;99506.83;1683713;83;20995;-64
2023/07/06 04:30:44;;;;;;;4.92;2.42;;;;;;;14.45;99.73;99513.37;1682438;83;20983;-66
2023/07/06 04:33:14;;;;;;;3.52;1.98;;;;;;;14.58;100.00;99512.57;1681612;83;21029;-66
2023/07/06 04:35:42;;;;;;;3.77;2.37;;;;;;;14.65;99.91;99516.48;1651309;83;21508;-65
2023/07/06 04:38:10;;;;;;;3.70;2.15;;;;;;;14.76;100.00;99511.34;1646779;85;21000;-64
2023/07/06 04:40:41;;;;;;;4.00;2.37;;;;;;;14.82;99.34;99508.29;1642222;86;21006;-65
2023/07/06 04:43:11;;;;;;;2.98;1.90;;;;;;;14.90;99.08;99508.61;1644847;86;20976;-65
2023/07/06 04:45:38;;;;;;;3.27;1.80;;;;;;;14.95;98.68;99516.16;1615796;87;21193;-64
2023/07/06 04:48:06;;;;;;;2.92;2.20;;;;;;;14.99;97.91;99513.23;1625301;86;21023;-64
2023/07/06 04:50:32;;;;;;;3.67;1.80;;;;;;;15.03;97.63;99521.73;1645823;86;21026;-66
2023/07/06 04:53:01;;;;;;;4.80;1.77;;;;;;;15.08;97.58;99516.17;1641075;86;20999;-64
2023/07/06 04:55:30;;;;;;;5.03;2.40;;;;;;;15.12;97.08;99515.00;1646052;86;21015;-64
2023/07/06 04:57:59;;;;;;;6.10;1.95;;;;;;;15.15;96.65;99526.17;1614420;86;21033;-65
2023/07/06 05:00:30;;;;;;;4.37;1.98;;;;;;;15.24;97.49;99526.00;1647880;86;21494;-66
2023/07/06 05:03:00;;;;;;;3.70;1.82;;;;;;;15.27;97.27;99531.05;1640588;86;21500;-66
2023/07/06 05:05:29;;;;;;;2.80;1.67;;;;;;;15.34;96.97;99533.59;1605177;87;21106;-64
2023/07/06 05:07:56;;;;;;;3.67;1.70;;;;;;;15.43;96.99;99525.08;1649284;85;21158;-64
2023/07/06 05:10:26;;;;;;;4.00;1.72;;;;;;;15.51;96.92;99529.78;1648175;85;21004;-66
2023/07/06 05:12:52;;;;;;;7.08;1.75;;;;;;;15.60;97.12;99523.88;1647992;86;21495;-65
2023/07/06 05:15:19;;;;;;;3.12;1.92;;;;;;;15.66;96.07;99516.03;1646199;86;20961;-64
2023/07/06 05:17:45;;;;;;;2.80;1.55;;;;;;;15.66;96.07;99513.39;1613833;87;21548;-65
2023/07/06 05:20:14;;;;;;;4.58;1.57;;;;;;;15.76;96.66;99517.06;1643300;86;21059;-67
2023/07/06 05:22:42;;;;;;;3.00;1.60;;;;;;;15.85;96.42;99520.81;1646363;86;21004;-66
2023/07/06 05:25:10;;;;;;;4.87;1.55;;;;;;;15.89;95.76;99516.55;1609971;87;21050;-66
2023/07/06 05:27:37;;;;;;;7.37;2.05;;;;;;;15.95;95.68;99522.33;1567231;90;21143;-65
2023/07/06 05:30:06;;;;;;;4.17;1.65;;;;;;;16.06;96.12;99519.75;1651402;85;21012;-63
2023/07/06 05:32:32;;;;;;;3.47;1.55;;;;;;;16.14;95.65;99522.66;1610219;86;21047;-67
2023/07/06 05:34:58;;;;;;;3.15;1.60;;;;;;;16.23;96.10;99520.66;1594913;88;21634;-65
2023/07/06 05:37:25;;;;;;;2.10;1.60;;;;;;;16.29;95.46;99522.00;1687351;83;21534;-67
2023/07/06 05:39:52;;;;;;;2.72;1.67;;;;;;;16.33;95.13;99525.62;1675310;85;21037;-66
2023/07/06 05:42:18;;;;;;;11.00;1.80;;;;;;;16.42;95.40;99521.94;1675461;85;21569;-68
2023/07/06 05:44:45;;;;;;;5.53;1.65;;;;;;;16.50;94.90;99526.16;1675438;84;21628;-65
2023/07/06 05:47:13;;;;;;;11.22;1.80;;;;;;;16.57;95.02;99528.69;1675803;85;21078;-66
2023/07/06 05:49:40;;;;;;;2.75;1.70;;;;;;;16.66;94.79;99531.94;1677133;84;21120;-63
2023/07/06 05:52:07;;;;;;;3.45;1.37;;;;;;;16.67;93.81;99536.27;1678051;84;21512;-65
2023/07/06 05:54:34;;;;;;;2.10;1.27;;;;;;;16.72;94.10;99538.09;1677416;84;21149;-67
2023/07/06 05:57:05;;;;;;;6.97;1.52;;;;;;;16.81;93.53;99534.42;1677512;85;21494;-68
2023/07/06 05:59:31;;;;;;;2.45;1.35;;;;;;;16.86;93.35;99537.08;1676984;84;21023;-64
2023/07/06 06:01:59;;;;;;;2.85;1.70;;;;;;;16.94;92.95;99541.73;1676337;84;20932;-67
2023/07/06 06:04:26;;;;;;;3.98;1.50;;;;;;;17.03;93.62;99546.33;1678115;84;21149;-66
2023/07/06 06:06:56;;;;;;;3.03;1.60;;;;;;;17.17;93.79;99543.47;1678118;85;21683;-67
2023/07/06 06:09:25;;;;;;;3.17;1.50;;;;;;;17.27;93.81;99544.06;1677012;85;21320;-67
2023/07/06 06:11:52;;;;;;;5.60;1.17;;;;;;;17.39;93.90;99543.09;1676911;85;20931;-63
2023/07/06 06:14:20;;;;;;;6.87;1.55;;;;;;;17.48;93.32;99538.92;1677060;84;22350;-66
2023/07/06 06:16:47;;;;;;;1.87;1.37;;;;;;;17.62;93.89;99551.37;1678152;84;20982;-66
2023/07/06 06:19:15;;;;;;;11.15;1.40;;;;;;;17.82;93.44;99550.30;1677443;84;20974;-67
2023/07/06 06:21:45;;;;;;;3.15;1.17;;;;;;;18.02;93.54;99557.45;1677032;84;21089;-64
2023/07/06 06:24:12;;;;;;;4.42;1.15;;;;;;;18.16;92.59;99555.50;1676849;84;21026;-68
2023/07/06 06:26:42;;;;;;;1.90;1.00;;;;;;;18.24;92.16;99555.72;1677808;84;21034;-68
2023/07/06 06:29:09;;;;;;;3.12;1.60;;;;;;;18.32;91.90;99558.58;1634319;87;21021;-66
2023/07/06 06:31:36;;;;;;;;;;;;;;;18.41;92.30;99551.20;1627538;86;20982;-66
2023/07/06 06:34:07;;;;;;;5.30;1.32;;;;;;;18.50;91.22;99550.92;1622154;87;20120;-64
2023/07/06 06:36:32;;;;;;;5.47;1.12;;;;;;;18.69;92.53;99547.59;1672563;84;21545;-63
2023/07/06 06:39:01;;;;;;;2.60;1.10;;;;;;;18.87;91.85;99551.84;1669052;84;21572;-66
2023/07/06 06:41:28;;;;;;;2.45;1.30;;;;;;;19.06;91.48;99556.41;1665166;85;20983;-64
2023/07/06 06:43:56;;;;;;;3.42;1.00;;;;;;;19.28;91.08;99557.58;1663545;84;21050;-65
2023/07/06 06:46:31;;;;;;;2.92;1.20;;;;;;;19.69;92.20;99555.83;1666444;84;21054;-65
2023/07/06 06:48:54;;;;;;;1.90;0.80;;;;;;;20.02;92.16;99553.80;1638815;86;21679;-65
2023/07/06 06:51:20;;;;;;;6.25;0.98;;;;;;;20.15;91.04;99554.38;1616836;86;21649;-65
2023/07/06 06:53:46;;;;;;;5.47;1.00;;;;;;;20.25;90.59;99549.94;1639481;86;21168;-64
2023/07/06 06:56:15;;;;;;;4.08;1.12;;;;;;;20.42;90.45;99547.08;1640480;86;21101;-63
2023/07/06 06:58:42;;;;;;;3.30;1.00;;;;;;;20.64;89.31;99555.27;1635975;85;21542;-64
2023/07/06 07:01:09;;;;;;;;;;;;;;;20.90;89.96;99558.66;1641763;86;21010;-64
2023/07/06 07:03:41;;;;;;;5.28;1.30;;;;;;;21.00;87.02;99558.13;1638312;86;20457;-65
2023/07/06 07:06:13;;;;;;;5.40;1.37;;;;;;;21.34;88.42;99561.59;1634243;86;21065;-64
2023/07/06 07:08:42;;;;;;;2.40;0.72;;;;;;;22.06;89.44;99563.48;1670270;84;21073;-64
2023/07/06 07:11:10;;;;;;;3.15;0.60;;;;;;;22.99;90.27;99557.39;1672326;84;21455;-66
2023/07/06 07:13:38;;;;;;;3.37;0.80;;;;;;;23.89;89.75;99559.69;1672341;84;20928;-66
2023/07/06 07:16:06;;;;;;;3.98;0.82;;;;;;;24.86;88.83;99560.80;1671598;84;21558;-64
2023/07/06 07:18:34;;;;;;;2.58;1.40;;;;;;;25.79;89.47;99560.22;1630257;86;21470;-64
2023/07/06 07:21:01;;;;;;;1.77;0.90;;;;;;;26.70;86.24;99565.89;1677444;85;20987;-67
2023/07/06 07:23:29;;;;;;;5.92;0.90;;;;;;;;;;1678003;84;21138;-67
2023/07/06 07:25:56;;;;;;;4.10;0.93;;;;;;;27.96;85.06;99568.25;1674272;84;21601;-66
2023/07/06 07:28:23;;;;;;;5.42;1.15;;;;;;;28.64;85.40;99564.20;1671809;84;21019;-66
2023/07/06 07:30:58;;;;;;;1.55;0.70;;;;;;;28.93;84.79;99569.08;1672448;84;21445;-63
2023/07/06 07:33:27;;;;;;;1.57;0.85;;;;;;;29.57;83.75;99578.30;1672485;84;21034;-66
2023/07/06 07:35:53;;;;;;;2.65;1.07;;;;;;;29.84;83.41;99585.20;1681880;83;21109;-66
2023/07/06 07:38:23;;;;;;;2.52;0.90;;;;;;;30.37;78.57;99578.66;1688682;83;21072;-64
2023/07/06 07:40:56;;;;;;;4.60;1.02;;;;;;;30.40;79.14;99582.28;1687296;83;21477;-67
2023/07/06 07:43:25;;;;;;;2.42;0.90;;;;;;;30.47;81.46;99585.83;1686689;84;21002;-67
2023/07/06 07:45:55;;;;;;;2.60;1.27;;;;;;;30.93;76.04;99587.73;1685927;83;21375;-67
2023/07/06 07:48:25;;;;;;;1.45;0.93;;;;;;;31.44;75.55;99591.10;1683135;83;21110;-68
2023/07/06 07:50:56;;;;;;;3.95;1.00;;;;;;;32.17;73.04;99583.26;1683771;84;21003;-70
2023/07/06 07:53:25;;;;;;;1.25;0.80;;;;;;;32.27;73.40;99597.13;1656315;85;20913;-68
2023/07/06 07:55:56;;;;;;;8.23;0.80;;;;;;;31.85;72.74;99593.16;1664651;85;21154;-67
2023/07/06 07:58:24;;;;;;;2.30;1.00;;;;;;;31.88;73.10;99598.95;1684184;84;21077;-68
2023/07/06 08:00:51;;;;;;;2.08;0.70;;;;;;;31.76;73.20;99604.73;1682029;85;21014;-68
2023/07/06 08:03:17;;;;;;;1.35;0.80;;;;;;;32.23;72.91;99609.40;1682924;84;21482;-68
2023/07/06 08:05:44;;;;;;;10.55;1.00;;;;;;;32.90;72.40;99614.38;1683328;84;21010;-68
2023/07/06 08:08:11;;;;;;;2.22;0.88;;;;;;;33.18;71.66;99620.19;1682194;83;21122;-69
2023/07/06 08:10:40;;;;;;;3.40;0.80;;;;;;;33.62;71.08;99618.31;1684031;85;20975;-68
2023/07/06 08:13:09;;;;;;;2.05;0.95;;;;;;;34.00;70.56;99629.94;1682281;85;22316;-68
2023/07/06 08:15:39;;;;;;;3.37;1.10;;;;;;;34.87;69.10;99629.58;1683906;84;21430;-68
2023/07/06 08:18:06;;;;;;;2.22;0.85;;;;;;;35.82;69.42;99634.80;1684043;85;21478;-65
2023/07/06 08:20:34;;;;;;;4.50;1.20;;;;;;;36.76;67.98;99636.87;1683948;83;21526;-65
2023/07/06 08:23:03;;;;;;;3.22;0.90;;;;;;;37.37;65.49;99635.13;1683250;84;20959;-69
2023/07/06 08:25:37;;;;;;;1.92;0.90;;;;;;;37.77;64.65;99642.22;1684065;84;21034;-65
2023/07/06 08:28:05;;;;;;;8.38;0.93;;;;;;;38.00;64.37;99643.34;1653986;84;20988;-65
2023/07/06 08:30:34;;;;;;;3.70;0.80;;;;;;;37.97;62.79;99641.67;1654860;85;21033;-66
2023/07/06 08:33:02;;;;;;;1.52;0.80;;;;;;;38.20;62.70;99650.11;1682578;84;21013;-67
2023/07/06 08:35:31;;;;;;;1.50;0.78;;;;;;;38.23;61.51;99653.16;1684117;83;21496;-65
2023/07/06 08:38:04;;;;;;;2.05;0.90;;;;;;;39.09;62.09;99648.80;1690635;83;21009;-67
2023/07/06 08:40:30;;;;;;;6.50;0.90;;;;;;;39.85;57.87;99654.47;1687111;83;20952;-66
2023/07/06 08:42:58;;;;;;;2.50;0.70;;;;;;;40.15;58.88;99655.94;1683227;84;21069;-68
2023/07/06 08:45:28;;;;;;;3.00;0.72;;;;;;;40.53;56.10;99659.34;1685557;83;20990;-64
2023/07/06 08:47:56;;;;;;;4.28;1.15;;;;;;;40.33;56.34;99656.55;1683573;84;20993;-65
2023/07/06 08:50:28;;;;;;;1.80;0.90;;;;;;;39.89;54.64;99661.06;1684720;83;21046;-65
2023/07/06 08:52:56;;;;;;;1.75;1.07;;;;;;;39.13;49.51;99655.39;1683522;84;21604;-64
2023/07/06 08:55:24;;;;;;;2.60;1.15;;;;;;;38.87;52.27;99655.17;1682917;84;20927;-68
2023/07/06 08:57:52;;;;;;;1.90;0.82;;;;;;;38.78;46.06;99656.70;1684926;83;20951;-68
2023/07/06 09:00:25;;;;;;;2.08;1.05;;;;;;;38.30;48.99;99655.68;1681191;84;21017;-68
2023/07/06 09:02:58;;;;;;;2.05;1.00;;;;;;;37.91;46.83;99663.92;1683534;83;21069;-69
2023/07/06 09:05:31;;;;;;;1.72;1.05;;;;;;;37.88;47.88;99664.44;1683878;83;21136;-66
2023/07/06 09:07:56;;;;;;;5.35;1.17;;;;;;;37.96;47.60;99666.75;1680507;84;20959;-70
2023/07/06 09:10:25;;;;;;;4.08;0.82;;;;;;;38.09;47.77;99666.88;1683284;83;21136;-69
2023/07/06 09:12:54;;;;;;;3.17;0.93;;;;;;;39.09;47.74;99665.17;1683296;84;20939;-70
2023/07/06 09:15:30;;;;;;;2.87;1.00;;;;;;;39.69;47.72;99658.48;1684531;83;21014;-71
2023/07/06 09:18:03;;;;;;;7.05;1.05;;;;;;;40.38;45.59;99662.05;1684542;84;22403;-69
2023/07/06 09:20:28;;;;;;;4.53;0.90;;;;;;;40.42;45.38;99673.55;1682144;84;21628;-69
2023/07/06 09:22:56;;;;;;;3.58;0.80;;;;;;;41.08;45.72;99674.17;1662163;85;20964;-66
2023/07/06 09:25:28;;;;;;;3.27;1.00;;;;;;;41.51;44.70;99669.22;1683088;84;20991;-69
2023/07/06 09:27:58;;;;;;;7.37;1.50;;;;;;;41.76;43.84;99672.95;1682715;85;21002;-69
2023/07/06 09:30:30;;;;;;;1.12;0.80;;;;;;;41.59;43.48;99667.28;1682077;84;21097;-70
2023/07/06 09:33:04;;;;;;;2.35;1.10;;;;;;;40.96;40.18;99670.88;1682005;82;20982;-71
2023/07/06 09:35:30;;;;;;;1.30;0.70;;;;;;;40.56;41.40;99679.32;1680891;83;21057;-68
2023/07/06 09:37:58;;;;;;;2.70;1.00;;;;;;;39.72;40.63;99678.45;1679397;84;21065;-69
2023/07/06 09:40:29;;;;;;;2.08;0.88;;;;;;;40.04;40.52;99677.51;1647666;86;21608;-70
2023/07/06 09:42:55;;;;;;;3.17;1.10;;;;;;;40.56;41.09;99675.22;1678120;84;20971;-67
2023/07/06 09:45:29;;;;;;;4.97;1.32;;;;;;;40.56;37.92;99671.11;1641909;86;21600;-69
2023/07/06 09:48:08;;;;;;;6.55;1.20;;;;;;;40.79;40.48;99671.70;1635698;86;20963;-68
2023/07/06 09:50:43;;;;;;;2.70;1.10;;;;;;;42.33;40.39;99673.02;1634003;87;21078;-66
2023/07/06 09:53:11;;;;;;;;;;;;;;;43.29;39.43;99673.37;1635808;86;21068;-68
2023/07/06 09:55:41;;;;;;;5.12;1.37;;;;;;;43.21;36.51;99675.38;1633198;86;20103;-70
2023/07/06 09:58:13;;;;;;;1.77;0.90;;;;;;;42.74;38.47;99671.37;1630883;86;21041;-71
2023/07/06 10:00:43;;;;;;;1.72;0.80;;;;;;;42.51;38.95;99677.56;1674789;84;21001;-69
2023/07/06 10:03:25;;;;;;;2.35;1.10;;;;;;;42.12;38.70;99676.94;1671534;84;21037;-67
2023/07/06 10:05:55;;;;;;;1.35;1.02;;;;;;;41.73;38.18;99673.52;1670760;84;20997;-69
2023/07/06 10:08:38;;;;;;;3.10;1.10;;;;;;;41.29;38.50;99668.69;1672346;84;21639;-69
2023/07/06 10:11:13;;;;;;;2.10;1.02;;;;;;;41.11;36.69;99673.63;1573685;90;21091;-70
2023/07/06 10:14:01;;;;;;;2.15;0.85;;;;;;;41.28;37.21;99667.03;1566455;90;21182;-67
2023/07/06 10:16:55;;;;;;;1.80;0.95;;;;;;;42.74;33.66;99666.44;1568848;90;21514;-67
2023/07/06 10:19:36;;;;;;;5.08;1.10;;;;;;;43.09;33.15;99663.94;1562146;90;21134;-70
2023/07/06 10:22:13;;;;;;;2.00;1.02;;;;;;;43.16;35.62;99667.19;1574323;90;21054;-70
2023/07/06 10:24:56;;;;;;;6.12;1.27;;;;;;;44.21;36.20;99671.50;1569525;89;21066;-68
2023/07/06 10:27:25;;;;;;;7.03;1.10;;;;;;;44.38;35.60;99672.38;1567365;90;21617;-67
2023/07/06 10:29:55;;;;;;;2.30;1.25;;;;;;;44.51;34.65;99663.38;1571832;90;21059;-71
2023/07/06 10:32:24;;;;;;;2.25;1.15;;;;;;;44.10;33.82;99672.19;1565573;90;21051;-69
2023/07/06 10:34:54;;;;;;;3.80;1.10;;;;;;;43.59;34.43;99670.07;1572088;90;21107;-69
2023/07/06 10:37:24;;;;;;;5.25;1.20;;;;;;;42.28;34.18;99667.52;1552230;90;21146;-68
2023/07/06 10:40:00;;;;;;;5.45;1.20;;;;;;;40.97;35.05;99675.25;1538605;92;21059;-66
2023/07/06 10:42:33;;;;;;;2.45;1.22;;;;;;;40.60;35.19;99673.56;1538144;92;21543;-68
2023/07/06 10:45:03;;;;;;;2.30;1.10;;;;;;;39.33;35.07;99681.50;1560403;90;21030;-67
2023/07/06 10:47:44;;;;;;;2.20;1.02;;;;;;;38.43;34.79;99674.95;1568770;87;21043;-72
2023/07/06 10:50:13;;;;;;;4.67;1.20;;;;;;;37.16;35.23;99671.55;1622793;87;21051;-68
2023/07/06 10:52:46;;;;;;;2.02;1.10;;;;;;;35.55;35.54;99679.80;1606521;88;21020;-70
2023/07/06 10:55:27;;;;;;;4.47;1.22;;;;;;;35.72;36.43;99683.47;1591645;88;21535;-70
2023/07/06 10:57:59;;;;;;;2.70;1.15;;;;;;;35.21;36.45;99679.56;1675156;84;21116;-69
2023/07/06 11:00:35;;;;;;;2.35;1.40;;;;;;;34.59;35.87;99684.45;1674334;84;21108;-70
2023/07/06 11:03:04;;;;;;;1.87;1.22;;;;;;;33.81;36.49;99677.89;1659160;85;21021;-73
2023/07/06 11:05:36;;;;;;;2.52;1.37;;;;;;;34.61;36.46;99675.03;1672873;84;21627;-71
2023/07/06 11:08:05;;;;;;;2.83;1.30;;;;;;;35.94;37.04;99682.84;1642387;86;21028;-70
2023/07/06 11:10:47;;;;;;;2.62;1.05;;;;;;;36.80;35.04;99685.62;1657982;84;21068;-68
2023/07/06 11:13:20;;;;;;;1.47;1.10;;;;;;;36.02;34.44;99685.16;1641273;86;21151;-69
2023/07/06 11:15:56;;;;;;;2.15;1.00;;;;;;;36.18;35.72;99684.45;1642955;87;21060;-68
2023/07/06 11:18:25;;;;;;;2.40;1.00;;;;;;;37.07;35.89;99686.66;1642930;86;21002;-73
2023/07/06 11:20:55;;;;;;;1.80;0.85;;;;;;;38.14;36.03;99687.94;1642931;85;21144;-68
2023/07/06 11:23:34;;;;;;;1.60;0.95;;;;;;;38.67;35.20;99687.17;1641617;86;21002;-68
2023/07/06 11:26:07;;;;;;;2.12;0.90;;;;;;;39.00;34.29;99686.68;1643366;85;21003;-69
2023/07/06 11:28:34;;;;;;;1.42;0.95;;;;;;;38.65;33.80;99702.14;1622512;86;21039;-69
2023/07/06 11:31:06;;;;;;;3.70;0.75;;;;;;;38.18;33.14;99706.81;1658083;85;21052;-72
2023/07/06 11:33:57;;;;;;;2.80;1.20;;;;;;;37.05;33.53;99709.75;1654231;85;21021;-69
2023/07/06 11:36:30;;;;;;;2.17;0.85;;;;;;;35.78;33.81;99706.95;1658217;85;21133;-70
2023/07/06 11:39:12;;;;;;;2.55;1.20;;;;;;;34.49;34.44;99714.81;1669058;84;21610;-69
2023/07/06 11:41:53;;;;;;;3.62;1.20;;;;;;;33.68;35.16;99713.23;1630176;86;21049;-67
2023/07/06 11:44:28;;;;;;;3.92;1.12;;;;;;;32.92;35.90;99723.16;1629853;86;21171;-71